Kingston, Tennessee
Current Conditions -  °F | °C
As of 4:53 PM on Monday 22 Dec 2014 (Local Time) from KOQT Reporting Station
Overcast Overcast  
Wind Chill: 55°   Ceiling: 6500
Heat Index: 55°   Visibility: 10mi
Dew Point: 43°   Wind: 0mph
Humidity: 64%   Direction: NA
Pressure: 29.87"   Gusts: NA
Location:  35.88°N, 84.51°W
Report Text: KOQT 222153Z AUTO 00000KT 10SM BKN065 OVC085 13/06 A2987 RMK AO2 RAE00 SLP117 P0000 T01280061
Loading
Personal Weather Stations






























Interactive Weather Map New forecast layout! Learn more

10-Day Weather Forecast

Advertisements
Track Severe Weather on mobile